sensor_id;sensor_type;location;lat;lon;timestamp;P1;durP1;ratioP1;P2;durP2;ratioP2
67841;SDS011;54642;59.126;37.876;2022-11-15T00:00:04;26.63;;;5.28;;
67841;SDS011;54642;59.126;37.876;2022-11-15T00:02:49;20.30;;;6.05;;
67841;SDS011;54642;59.126;37.876;2022-11-15T00:05:36;19.67;;;5.13;;
67841;SDS011;54642;59.126;37.876;2022-11-15T00:08:20;17.17;;;5.05;;
67841;SDS011;54642;59.126;37.876;2022-11-15T00:11:05;11.05;;;5.45;;
67841;SDS011;54642;59.126;37.876;2022-11-15T00:13:49;24.15;;;5.55;;
67841;SDS011;54642;59.126;37.876;2022-11-15T00:16:34;20.17;;;4.30;;
67841;SDS011;54642;59.126;37.876;2022-11-15T00:19:18;9.52;;;4.72;;
67841;SDS011;54642;59.126;37.876;2022-11-15T00:22:02;12.13;;;6.38;;
67841;SDS011;54642;59.126;37.876;2022-11-15T00:24:47;12.35;;;5.97;;
67841;SDS011;54642;59.126;37.876;2022-11-15T00:27:31;14.35;;;7.53;;
67841;SDS011;54642;59.126;37.876;2022-11-15T00:30:16;14.07;;;6.32;;
67841;SDS011;54642;59.126;37.876;2022-11-15T00:33:03;15.02;;;6.55;;
67841;SDS011;54642;59.126;37.876;2022-11-15T00:35:48;20.85;;;8.07;;
67841;SDS011;54642;59.126;37.876;2022-11-15T00:38:33;33.47;;;15.77;;
67841;SDS011;54642;59.126;37.876;2022-11-15T00:41:18;33.17;;;12.55;;
67841;SDS011;54642;59.126;37.876;2022-11-15T00:44:03;30.00;;;13.07;;
67841;SDS011;54642;59.126;37.876;2022-11-15T00:46:48;10.35;;;6.82;;
67841;SDS011;54642;59.126;37.876;2022-11-15T00:49:32;12.77;;;6.20;;
67841;SDS011;54642;59.126;37.876;2022-11-15T00:52:16;11.57;;;7.25;;
67841;SDS011;54642;59.126;37.876;2022-11-15T00:55:01;15.93;;;8.00;;
67841;SDS011;54642;59.126;37.876;2022-11-15T00:57:46;7.38;;;4.05;;
67841;SDS011;54642;59.126;37.876;2022-11-15T01:00:30;12.18;;;5.60;;
67841;SDS011;54642;59.126;37.876;2022-11-15T01:03:15;9.07;;;6.30;;
67841;SDS011;54642;59.126;37.876;2022-11-15T01:06:00;11.45;;;5.30;;
67841;SDS011;54642;59.126;37.876;2022-11-15T01:08:44;9.32;;;5.57;;
67841;SDS011;54642;59.126;37.876;2022-11-15T01:11:28;11.48;;;6.30;;
67841;SDS011;54642;59.126;37.876;2022-11-15T01:14:13;9.48;;;6.18;;
67841;SDS011;54642;59.126;37.876;2022-11-15T01:16:57;20.70;;;7.72;;
67841;SDS011;54642;59.126;37.876;2022-11-15T01:19:42;8.85;;;7.47;;
67841;SDS011;54642;59.126;37.876;2022-11-15T01:22:26;10.90;;;7.25;;
67841;SDS011;54642;59.126;37.876;2022-11-15T01:25:11;8.98;;;6.65;;
67841;SDS011;54642;59.126;37.876;2022-11-15T01:27:55;12.07;;;6.72;;
67841;SDS011;54642;59.126;37.876;2022-11-15T01:30:39;9.48;;;6.32;;
67841;SDS011;54642;59.126;37.876;2022-11-15T01:33:23;9.52;;;5.35;;
67841;SDS011;54642;59.126;37.876;2022-11-15T01:36:10;6.70;;;4.38;;
67841;SDS011;54642;59.126;37.876;2022-11-15T01:38:57;10.63;;;6.03;;
67841;SDS011;54642;59.126;37.876;2022-11-15T01:41:42;10.25;;;5.45;;
67841;SDS011;54642;59.126;37.876;2022-11-15T01:47:22;7.93;;;6.28;;
67841;SDS011;54642;59.126;37.876;2022-11-15T01:50:10;9.68;;;6.50;;
67841;SDS011;54642;59.126;37.876;2022-11-15T01:52:59;8.57;;;6.03;;
67841;SDS011;54642;59.126;37.876;2022-11-15T01:55:43;23.60;;;15.50;;
67841;SDS011;54642;59.126;37.876;2022-11-15T01:58:28;91.25;;;48.30;;
67841;SDS011;54642;59.126;37.876;2022-11-15T02:01:13;57.67;;;27.85;;
67841;SDS011;54642;59.126;37.876;2022-11-15T02:03:58;105.10;;;55.30;;
67841;SDS011;54642;59.126;37.876;2022-11-15T02:06:48;61.80;;;35.13;;
67841;SDS011;54642;59.126;37.876;2022-11-15T02:09:33;46.25;;;31.88;;
67841;SDS011;54642;59.126;37.876;2022-11-15T02:12:20;38.50;;;22.90;;
67841;SDS011;54642;59.126;37.876;2022-11-15T02:15:06;30.23;;;17.50;;
67841;SDS011;54642;59.126;37.876;2022-11-15T02:21:21;85.93;;;49.80;;
67841;SDS011;54642;59.126;37.876;2022-11-15T02:41:44;13.63;;;8.45;;
67841;SDS011;54642;59.126;37.876;2022-11-15T02:44:32;13.32;;;7.60;;
67841;SDS011;54642;59.126;37.876;2022-11-15T02:47:20;8.70;;;6.18;;
67841;SDS011;54642;59.126;37.876;2022-11-15T02:50:08;20.85;;;8.07;;
67841;SDS011;54642;59.126;37.876;2022-11-15T02:52:59;11.65;;;6.85;;
67841;SDS011;54642;59.126;37.876;2022-11-15T02:55:45;11.10;;;5.93;;
67841;SDS011;54642;59.126;37.876;2022-11-15T03:04:57;10.48;;;4.32;;
67841;SDS011;54642;59.126;37.876;2022-11-15T03:13:57;10.15;;;4.22;;
67841;SDS011;54642;59.126;37.876;2022-11-15T03:17:26;6.22;;;4.20;;
67841;SDS011;54642;59.126;37.876;2022-11-15T03:20:01;8.13;;;4.40;;
67841;SDS011;54642;59.126;37.876;2022-11-15T03:22:48;13.27;;;3.70;;
67841;SDS011;54642;59.126;37.876;2022-11-15T03:25:36;13.45;;;6.97;;
67841;SDS011;54642;59.126;37.876;2022-11-15T03:28:28;17.73;;;7.78;;
67841;SDS011;54642;59.126;37.876;2022-11-15T03:31:20;15.60;;;7.55;;
67841;SDS011;54642;59.126;37.876;2022-11-15T03:34:39;14.77;;;7.05;;
67841;SDS011;54642;59.126;37.876;2022-11-15T03:37:30;17.25;;;7.00;;
67841;SDS011;54642;59.126;37.876;2022-11-15T03:40:37;14.25;;;7.38;;
67841;SDS011;54642;59.126;37.876;2022-11-15T03:46:40;10.13;;;5.75;;
67841;SDS011;54642;59.126;37.876;2022-11-15T03:49:35;6.65;;;3.20;;
67841;SDS011;54642;59.126;37.876;2022-11-15T03:52:22;11.60;;;7.60;;
67841;SDS011;54642;59.126;37.876;2022-11-15T03:55:09;10.52;;;4.70;;
67841;SDS011;54642;59.126;37.876;2022-11-15T03:57:57;6.57;;;4.35;;
67841;SDS011;54642;59.126;37.876;2022-11-15T04:00:43;5.90;;;3.83;;
67841;SDS011;54642;59.126;37.876;2022-11-15T04:03:27;8.50;;;2.92;;
67841;SDS011;54642;59.126;37.876;2022-11-15T04:06:12;4.10;;;3.42;;
67841;SDS011;54642;59.126;37.876;2022-11-15T04:08:56;5.65;;;3.40;;
67841;SDS011;54642;59.126;37.876;2022-11-15T04:11:40;6.07;;;3.17;;
67841;SDS011;54642;59.126;37.876;2022-11-15T04:14:25;7.63;;;4.07;;
67841;SDS011;54642;59.126;37.876;2022-11-15T04:17:09;13.00;;;3.65;;
67841;SDS011;54642;59.126;37.876;2022-11-15T04:19:56;13.75;;;4.00;;
67841;SDS011;54642;59.126;37.876;2022-11-15T04:22:59;8.90;;;4.05;;
67841;SDS011;54642;59.126;37.876;2022-11-15T04:26:13;5.18;;;4.22;;
67841;SDS011;54642;59.126;37.876;2022-11-15T04:29:03;8.48;;;4.22;;
67841;SDS011;54642;59.126;37.876;2022-11-15T04:32:06;9.32;;;4.97;;
67841;SDS011;54642;59.126;37.876;2022-11-15T04:34:50;15.98;;;6.53;;
67841;SDS011;54642;59.126;37.876;2022-11-15T04:37:35;8.55;;;4.85;;
67841;SDS011;54642;59.126;37.876;2022-11-15T04:40:19;9.43;;;5.47;;
67841;SDS011;54642;59.126;37.876;2022-11-15T04:43:04;7.35;;;3.60;;
67841;SDS011;54642;59.126;37.876;2022-11-15T04:45:48;7.20;;;4.10;;
67841;SDS011;54642;59.126;37.876;2022-11-15T04:48:33;15.02;;;3.65;;
67841;SDS011;54642;59.126;37.876;2022-11-15T04:51:20;5.38;;;3.85;;
67841;SDS011;54642;59.126;37.876;2022-11-15T04:54:07;6.40;;;4.18;;
67841;SDS011;54642;59.126;37.876;2022-11-15T04:56:54;11.82;;;4.50;;
67841;SDS011;54642;59.126;37.876;2022-11-15T04:59:38;18.90;;;5.80;;
67841;SDS011;54642;59.126;37.876;2022-11-15T05:02:26;16.90;;;6.72;;
67841;SDS011;54642;59.126;37.876;2022-11-15T05:05:30;11.25;;;6.72;;
67841;SDS011;54642;59.126;37.876;2022-11-15T05:08:15;16.60;;;6.38;;
67841;SDS011;54642;59.126;37.876;2022-11-15T05:11:00;15.60;;;4.78;;
67841;SDS011;54642;59.126;37.876;2022-11-15T05:13:45;17.55;;;5.70;;
67841;SDS011;54642;59.126;37.876;2022-11-15T05:16:29;12.02;;;5.38;;
67841;SDS011;54642;59.126;37.876;2022-11-15T05:19:14;11.52;;;5.25;;
67841;SDS011;54642;59.126;37.876;2022-11-15T05:21:58;7.82;;;4.40;;
67841;SDS011;54642;59.126;37.876;2022-11-15T05:24:42;12.40;;;5.85;;
67841;SDS011;54642;59.126;37.876;2022-11-15T05:27:27;11.30;;;6.10;;
67841;SDS011;54642;59.126;37.876;2022-11-15T05:30:11;9.68;;;5.40;;
67841;SDS011;54642;59.126;37.876;2022-11-15T05:32:56;10.70;;;5.18;;
67841;SDS011;54642;59.126;37.876;2022-11-15T05:35:41;10.45;;;5.18;;
67841;SDS011;54642;59.126;37.876;2022-11-15T05:38:29;8.88;;;3.80;;
67841;SDS011;54642;59.126;37.876;2022-11-15T05:41:14;10.27;;;5.05;;
67841;SDS011;54642;59.126;37.876;2022-11-15T05:44:03;12.57;;;5.22;;
67841;SDS011;54642;59.126;37.876;2022-11-15T05:46:51;11.85;;;6.45;;
67841;SDS011;54642;59.126;37.876;2022-11-15T05:49:39;7.72;;;5.40;;
67841;SDS011;54642;59.126;37.876;2022-11-15T05:52:28;10.38;;;7.22;;
67841;SDS011;54642;59.126;37.876;2022-11-15T05:55:17;27.70;;;10.32;;
67841;SDS011;54642;59.126;37.876;2022-11-15T05:58:02;12.27;;;6.22;;
67841;SDS011;54642;59.126;37.876;2022-11-15T06:00:46;12.07;;;7.57;;
67841;SDS011;54642;59.126;37.876;2022-11-15T06:03:31;13.48;;;6.80;;
67841;SDS011;54642;59.126;37.876;2022-11-15T06:06:15;12.48;;;6.35;;
67841;SDS011;54642;59.126;37.876;2022-11-15T06:09:00;14.75;;;7.78;;
67841;SDS011;54642;59.126;37.876;2022-11-15T06:11:44;27.27;;;9.95;;
67841;SDS011;54642;59.126;37.876;2022-11-15T06:14:29;17.52;;;11.00;;
67841;SDS011;54642;59.126;37.876;2022-11-15T06:17:13;16.98;;;7.88;;
67841;SDS011;54642;59.126;37.876;2022-11-15T06:19:58;16.15;;;9.20;;
67841;SDS011;54642;59.126;37.876;2022-11-15T06:22:42;26.15;;;12.35;;
67841;SDS011;54642;59.126;37.876;2022-11-15T06:28:12;10.90;;;7.00;;
67841;SDS011;54642;59.126;37.876;2022-11-15T06:31:07;15.80;;;6.43;;
67841;SDS011;54642;59.126;37.876;2022-11-15T06:36:38;10.75;;;6.78;;
67841;SDS011;54642;59.126;37.876;2022-11-15T06:39:23;15.82;;;8.18;;
67841;SDS011;54642;59.126;37.876;2022-11-15T06:42:08;14.38;;;7.57;;
67841;SDS011;54642;59.126;37.876;2022-11-15T06:47:43;7.13;;;3.85;;
67841;SDS011;54642;59.126;37.876;2022-11-15T06:50:29;9.65;;;5.57;;
67841;SDS011;54642;59.126;37.876;2022-11-15T06:53:13;16.20;;;7.07;;
67841;SDS011;54642;59.126;37.876;2022-11-15T06:55:58;13.77;;;7.85;;
67841;SDS011;54642;59.126;37.876;2022-11-15T06:58:44;14.32;;;8.25;;
67841;SDS011;54642;59.126;37.876;2022-11-15T07:01:28;10.05;;;6.50;;
67841;SDS011;54642;59.126;37.876;2022-11-15T07:04:13;14.63;;;9.68;;
67841;SDS011;54642;59.126;37.876;2022-11-15T07:06:57;13.23;;;6.60;;
67841;SDS011;54642;59.126;37.876;2022-11-15T07:09:42;11.88;;;6.80;;
67841;SDS011;54642;59.126;37.876;2022-11-15T07:12:26;13.20;;;7.35;;
67841;SDS011;54642;59.126;37.876;2022-11-15T07:15:11;19.70;;;12.13;;
67841;SDS011;54642;59.126;37.876;2022-11-15T07:17:55;12.45;;;7.72;;
67841;SDS011;54642;59.126;37.876;2022-11-15T07:20:43;8.60;;;4.22;;
67841;SDS011;54642;59.126;37.876;2022-11-15T07:23:28;11.05;;;5.55;;
67841;SDS011;54642;59.126;37.876;2022-11-15T07:26:12;13.85;;;6.50;;
67841;SDS011;54642;59.126;37.876;2022-11-15T07:28:56;28.35;;;18.08;;
67841;SDS011;54642;59.126;37.876;2022-11-15T07:31:41;14.05;;;8.68;;
67841;SDS011;54642;59.126;37.876;2022-11-15T07:34:25;16.10;;;7.72;;
67841;SDS011;54642;59.126;37.876;2022-11-15T07:37:09;16.90;;;8.23;;
67841;SDS011;54642;59.126;37.876;2022-11-15T07:39:54;16.30;;;8.15;;
67841;SDS011;54642;59.126;37.876;2022-11-15T07:42:38;12.48;;;7.38;;
67841;SDS011;54642;59.126;37.876;2022-11-15T07:45:42;13.40;;;8.57;;
67841;SDS011;54642;59.126;37.876;2022-11-15T07:48:28;14.93;;;8.73;;
67841;SDS011;54642;59.126;37.876;2022-11-15T07:51:13;12.73;;;6.40;;
67841;SDS011;54642;59.126;37.876;2022-11-15T07:53:58;23.40;;;12.40;;
67841;SDS011;54642;59.126;37.876;2022-11-15T07:56:43;14.98;;;9.02;;
67841;SDS011;54642;59.126;37.876;2022-11-15T07:59:27;11.25;;;5.80;;
67841;SDS011;54642;59.126;37.876;2022-11-15T08:02:11;14.65;;;8.82;;
67841;SDS011;54642;59.126;37.876;2022-11-15T08:04:56;17.55;;;8.80;;
67841;SDS011;54642;59.126;37.876;2022-11-15T08:07:40;12.43;;;5.78;;
67841;SDS011;54642;59.126;37.876;2022-11-15T08:10:25;10.85;;;5.75;;
67841;SDS011;54642;59.126;37.876;2022-11-15T08:13:11;10.10;;;8.00;;
67841;SDS011;54642;59.126;37.876;2022-11-15T08:15:59;12.05;;;7.75;;
67841;SDS011;54642;59.126;37.876;2022-11-15T08:18:45;12.52;;;7.63;;
67841;SDS011;54642;59.126;37.876;2022-11-15T08:21:29;26.70;;;13.10;;
67841;SDS011;54642;59.126;37.876;2022-11-15T08:24:14;10.07;;;6.35;;
67841;SDS011;54642;59.126;37.876;2022-11-15T08:26:59;13.77;;;6.97;;
67841;SDS011;54642;59.126;37.876;2022-11-15T08:29:43;18.38;;;7.38;;
67841;SDS011;54642;59.126;37.876;2022-11-15T08:32:30;23.92;;;6.95;;
67841;SDS011;54642;59.126;37.876;2022-11-15T08:35:15;10.50;;;5.78;;
67841;SDS011;54642;59.126;37.876;2022-11-15T08:38:00;11.85;;;6.60;;
67841;SDS011;54642;59.126;37.876;2022-11-15T08:40:45;15.25;;;6.13;;
67841;SDS011;54642;59.126;37.876;2022-11-15T08:43:29;11.35;;;6.22;;
67841;SDS011;54642;59.126;37.876;2022-11-15T08:46:14;14.50;;;6.78;;
67841;SDS011;54642;59.126;37.876;2022-11-15T08:48:59;8.50;;;5.35;;
67841;SDS011;54642;59.126;37.876;2022-11-15T08:51:43;8.00;;;4.53;;
67841;SDS011;54642;59.126;37.876;2022-11-15T08:54:28;11.85;;;4.85;;
67841;SDS011;54642;59.126;37.876;2022-11-15T08:57:14;12.63;;;4.85;;
67841;SDS011;54642;59.126;37.876;2022-11-15T08:59:58;9.50;;;5.57;;
67841;SDS011;54642;59.126;37.876;2022-11-15T09:02:43;8.57;;;3.80;;
67841;SDS011;54642;59.126;37.876;2022-11-15T09:05:27;11.82;;;4.93;;
67841;SDS011;54642;59.126;37.876;2022-11-15T09:08:12;11.50;;;4.82;;
67841;SDS011;54642;59.126;37.876;2022-11-15T09:10:56;9.50;;;2.95;;
67841;SDS011;54642;59.126;37.876;2022-11-15T09:13:41;15.38;;;5.45;;
67841;SDS011;54642;59.126;37.876;2022-11-15T09:16:25;10.98;;;5.35;;
67841;SDS011;54642;59.126;37.876;2022-11-15T09:19:10;17.83;;;7.68;;
67841;SDS011;54642;59.126;37.876;2022-11-15T09:21:55;9.23;;;5.43;;
67841;SDS011;54642;59.126;37.876;2022-11-15T09:24:39;12.75;;;5.80;;
67841;SDS011;54642;59.126;37.876;2022-11-15T09:27:27;9.27;;;5.18;;
67841;SDS011;54642;59.126;37.876;2022-11-15T09:30:14;8.98;;;6.07;;
67841;SDS011;54642;59.126;37.876;2022-11-15T09:32:58;9.18;;;5.45;;
67841;SDS011;54642;59.126;37.876;2022-11-15T09:35:43;9.43;;;3.83;;
67841;SDS011;54642;59.126;37.876;2022-11-15T09:38:27;9.23;;;4.35;;
67841;SDS011;54642;59.126;37.876;2022-11-15T09:47:10;11.00;;;5.35;;
67841;SDS011;54642;59.126;37.876;2022-11-15T09:50:20;9.27;;;6.22;;
67841;SDS011;54642;59.126;37.876;2022-11-15T09:52:57;10.57;;;5.95;;
67841;SDS011;54642;59.126;37.876;2022-11-15T09:55:25;46.47;;;24.63;;
67841;SDS011;54642;59.126;37.876;2022-11-15T09:58:02;12.45;;;6.28;;
67841;SDS011;54642;59.126;37.876;2022-11-15T10:00:41;8.88;;;3.45;;
67841;SDS011;54642;59.126;37.876;2022-11-15T10:03:12;10.80;;;5.53;;
67841;SDS011;54642;59.126;37.876;2022-11-15T10:05:47;9.32;;;5.30;;
67841;SDS011;54642;59.126;37.876;2022-11-15T10:08:33;11.32;;;5.82;;
67841;SDS011;54642;59.126;37.876;2022-11-15T10:11:10;11.82;;;5.60;;
67841;SDS011;54642;59.126;37.876;2022-11-15T10:13:41;7.80;;;5.05;;
67841;SDS011;54642;59.126;37.876;2022-11-15T10:16:19;18.13;;;6.47;;
67841;SDS011;54642;59.126;37.876;2022-11-15T10:18:52;10.80;;;4.72;;
67841;SDS011;54642;59.126;37.876;2022-11-15T10:21:56;13.32;;;5.88;;
67841;SDS011;54642;59.126;37.876;2022-11-15T10:24:34;10.90;;;4.80;;
67841;SDS011;54642;59.126;37.876;2022-11-15T10:27:09;7.90;;;4.65;;
67841;SDS011;54642;59.126;37.876;2022-11-15T10:29:45;10.05;;;5.97;;
67841;SDS011;54642;59.126;37.876;2022-11-15T10:32:16;12.50;;;5.47;;
67841;SDS011;54642;59.126;37.876;2022-11-15T10:34:47;7.32;;;4.70;;
67841;SDS011;54642;59.126;37.876;2022-11-15T10:37:29;6.88;;;3.22;;
67841;SDS011;54642;59.126;37.876;2022-11-15T10:40:06;9.02;;;3.60;;
67841;SDS011;54642;59.126;37.876;2022-11-15T10:42:42;10.30;;;4.55;;
67841;SDS011;54642;59.126;37.876;2022-11-15T10:47:50;8.93;;;3.97;;
67841;SDS011;54642;59.126;37.876;2022-11-15T10:52:53;4.97;;;3.92;;
67841;SDS011;54642;59.126;37.876;2022-11-15T11:00:35;8.98;;;4.85;;
67841;SDS011;54642;59.126;37.876;2022-11-15T11:03:06;8.00;;;4.18;;
67841;SDS011;54642;59.126;37.876;2022-11-15T11:06:05;6.72;;;3.80;;
67841;SDS011;54642;59.126;37.876;2022-11-15T11:08:36;9.30;;;5.10;;
67841;SDS011;54642;59.126;37.876;2022-11-15T11:11:03;8.93;;;4.22;;
67841;SDS011;54642;59.126;37.876;2022-11-15T11:13:31;25.52;;;11.77;;
67841;SDS011;54642;59.126;37.876;2022-11-15T11:18:47;5.13;;;3.42;;
67841;SDS011;54642;59.126;37.876;2022-11-15T11:21:14;4.82;;;2.78;;
67841;SDS011;54642;59.126;37.876;2022-11-15T11:27:07;7.72;;;4.45;;
67841;SDS011;54642;59.126;37.876;2022-11-15T11:29:28;9.85;;;3.75;;
67841;SDS011;54642;59.126;37.876;2022-11-15T11:35:11;7.72;;;5.15;;
67841;SDS011;54642;59.126;37.876;2022-11-15T11:37:49;10.45;;;4.97;;
67841;SDS011;54642;59.126;37.876;2022-11-15T11:40:29;6.65;;;5.00;;
67841;SDS011;54642;59.126;37.876;2022-11-15T11:43:09;16.35;;;7.18;;
67841;SDS011;54642;59.126;37.876;2022-11-15T11:45:56;8.15;;;4.88;;
67841;SDS011;54642;59.126;37.876;2022-11-15T11:48:33;6.47;;;4.00;;
67841;SDS011;54642;59.126;37.876;2022-11-15T11:51:10;4.53;;;3.53;;
67841;SDS011;54642;59.126;37.876;2022-11-15T11:56:26;10.98;;;3.58;;
67841;SDS011;54642;59.126;37.876;2022-11-15T11:58:56;6.65;;;4.47;;
67841;SDS011;54642;59.126;37.876;2022-11-15T12:01:37;8.30;;;4.00;;
67841;SDS011;54642;59.126;37.876;2022-11-15T12:04:13;6.13;;;4.72;;
67841;SDS011;54642;59.126;37.876;2022-11-15T12:12:30;5.10;;;3.42;;
67841;SDS011;54642;59.126;37.876;2022-11-15T12:15:16;6.25;;;4.15;;
67841;SDS011;54642;59.126;37.876;2022-11-15T12:17:49;6.07;;;4.07;;
67841;SDS011;54642;59.126;37.876;2022-11-15T12:33:37;10.75;;;4.78;;
67841;SDS011;54642;59.126;37.876;2022-11-15T12:39:10;5.93;;;3.88;;
67841;SDS011;54642;59.126;37.876;2022-11-15T12:41:38;6.95;;;3.95;;
67841;SDS011;54642;59.126;37.876;2022-11-15T12:44:10;8.38;;;4.53;;
67841;SDS011;54642;59.126;37.876;2022-11-15T12:49:10;9.18;;;5.13;;
67841;SDS011;54642;59.126;37.876;2022-11-15T13:17:49;14.85;;;9.95;;
67841;SDS011;54642;59.126;37.876;2022-11-15T13:25:18;19.45;;;12.38;;
67841;SDS011;54642;59.126;37.876;2022-11-15T13:27:55;25.30;;;15.90;;
67841;SDS011;54642;59.126;37.876;2022-11-15T13:30:29;26.00;;;16.25;;
67841;SDS011;54642;59.126;37.876;2022-11-15T13:32:58;18.17;;;11.55;;
67841;SDS011;54642;59.126;37.876;2022-11-15T13:35:33;20.85;;;14.30;;
67841;SDS011;54642;59.126;37.876;2022-11-15T13:38:06;21.38;;;13.25;;
67841;SDS011;54642;59.126;37.876;2022-11-15T13:40:43;28.17;;;14.30;;
67841;SDS011;54642;59.126;37.876;2022-11-15T13:48:36;31.17;;;16.98;;
67841;SDS011;54642;59.126;37.876;2022-11-15T13:51:10;34.38;;;16.33;;
67841;SDS011;54642;59.126;37.876;2022-11-15T13:53:59;17.52;;;9.15;;
67841;SDS011;54642;59.126;37.876;2022-11-15T13:56:32;11.35;;;7.53;;
67841;SDS011;54642;59.126;37.876;2022-11-15T13:58:59;9.95;;;6.90;;
67841;SDS011;54642;59.126;37.876;2022-11-15T14:01:33;14.18;;;9.45;;
67841;SDS011;54642;59.126;37.876;2022-11-15T14:06:27;18.95;;;10.07;;
67841;SDS011;54642;59.126;37.876;2022-11-15T14:11:36;18.83;;;9.85;;
67841;SDS011;54642;59.126;37.876;2022-11-15T14:14:14;28.17;;;14.95;;
67841;SDS011;54642;59.126;37.876;2022-11-15T14:16:45;20.63;;;10.75;;
67841;SDS011;54642;59.126;37.876;2022-11-15T14:19:32;26.05;;;13.75;;
67841;SDS011;54642;59.126;37.876;2022-11-15T14:24:41;20.45;;;8.55;;
67841;SDS011;54642;59.126;37.876;2022-11-15T14:27:20;20.20;;;9.77;;
67841;SDS011;54642;59.126;37.876;2022-11-15T14:29:53;20.98;;;9.25;;
67841;SDS011;54642;59.126;37.876;2022-11-15T14:32:27;16.15;;;7.25;;
67841;SDS011;54642;59.126;37.876;2022-11-15T14:34:55;17.25;;;8.80;;
67841;SDS011;54642;59.126;37.876;2022-11-15T14:37:24;15.25;;;8.27;;
67841;SDS011;54642;59.126;37.876;2022-11-15T14:39:52;12.18;;;5.88;;
67841;SDS011;54642;59.126;37.876;2022-11-15T14:42:19;10.15;;;6.50;;
67841;SDS011;54642;59.126;37.876;2022-11-15T14:44:46;24.70;;;10.15;;
67841;SDS011;54642;59.126;37.876;2022-11-15T14:47:13;18.17;;;7.15;;
67841;SDS011;54642;59.126;37.876;2022-11-15T14:52:09;20.73;;;8.18;;
67841;SDS011;54642;59.126;37.876;2022-11-15T14:54:49;19.27;;;7.53;;
67841;SDS011;54642;59.126;37.876;2022-11-15T14:57:15;15.85;;;6.97;;
67841;SDS011;54642;59.126;37.876;2022-11-15T15:02:20;23.00;;;7.88;;
67841;SDS011;54642;59.126;37.876;2022-11-15T15:04:48;19.17;;;7.75;;
67841;SDS011;54642;59.126;37.876;2022-11-15T15:07:15;22.30;;;9.23;;
67841;SDS011;54642;59.126;37.876;2022-11-15T15:09:41;26.90;;;8.73;;
67841;SDS011;54642;59.126;37.876;2022-11-15T15:12:13;21.58;;;8.10;;
67841;SDS011;54642;59.126;37.876;2022-11-15T15:14:42;12.85;;;5.53;;
67841;SDS011;54642;59.126;37.876;2022-11-15T15:17:08;22.00;;;6.80;;
67841;SDS011;54642;59.126;37.876;2022-11-15T15:19:35;22.40;;;5.13;;
67841;SDS011;54642;59.126;37.876;2022-11-15T15:22:01;36.00;;;5.50;;
67841;SDS011;54642;59.126;37.876;2022-11-15T15:24:27;20.35;;;6.13;;
67841;SDS011;54642;59.126;37.876;2022-11-15T15:26:53;27.00;;;6.53;;
67841;SDS011;54642;59.126;37.876;2022-11-15T15:31:45;19.77;;;7.93;;
67841;SDS011;54642;59.126;37.876;2022-11-15T15:34:11;19.98;;;5.82;;
67841;SDS011;54642;59.126;37.876;2022-11-15T15:39:03;16.02;;;5.68;;
67841;SDS011;54642;59.126;37.876;2022-11-15T15:43:54;11.52;;;5.32;;
67841;SDS011;54642;59.126;37.876;2022-11-15T15:48:46;24.15;;;10.75;;
67841;SDS011;54642;59.126;37.876;2022-11-15T15:51:12;28.27;;;12.23;;
67841;SDS011;54642;59.126;37.876;2022-11-15T15:56:05;23.42;;;10.18;;
67841;SDS011;54642;59.126;37.876;2022-11-15T15:58:33;25.90;;;12.40;;
67841;SDS011;54642;59.126;37.876;2022-11-15T16:01:00;40.67;;;16.33;;
67841;SDS011;54642;59.126;37.876;2022-11-15T16:03:26;41.50;;;16.67;;
67841;SDS011;54642;59.126;37.876;2022-11-15T16:05:53;27.75;;;13.15;;
67841;SDS011;54642;59.126;37.876;2022-11-15T16:08:20;37.60;;;15.77;;
67841;SDS011;54642;59.126;37.876;2022-11-15T16:10:48;30.88;;;11.45;;
67841;SDS011;54642;59.126;37.876;2022-11-15T16:13:14;33.25;;;14.85;;
67841;SDS011;54642;59.126;37.876;2022-11-15T16:18:08;45.15;;;21.27;;
67841;SDS011;54642;59.126;37.876;2022-11-15T16:20:42;63.90;;;26.17;;
67841;SDS011;54642;59.126;37.876;2022-11-15T16:23:10;58.60;;;28.75;;
67841;SDS011;54642;59.126;37.876;2022-11-15T16:28:19;40.22;;;19.60;;
67841;SDS011;54642;59.126;37.876;2022-11-15T16:30:48;37.72;;;16.70;;
67841;SDS011;54642;59.126;37.876;2022-11-15T16:33:15;36.00;;;19.60;;
67841;SDS011;54642;59.126;37.876;2022-11-15T16:35:43;46.92;;;26.50;;
67841;SDS011;54642;59.126;37.876;2022-11-15T16:40:39;46.72;;;19.48;;
67841;SDS011;54642;59.126;37.876;2022-11-15T16:43:05;31.58;;;12.20;;
67841;SDS011;54642;59.126;37.876;2022-11-15T16:45:33;31.27;;;13.68;;
67841;SDS011;54642;59.126;37.876;2022-11-15T16:47:59;19.60;;;10.70;;
67841;SDS011;54642;59.126;37.876;2022-11-15T16:50:26;42.15;;;17.98;;
67841;SDS011;54642;59.126;37.876;2022-11-15T16:52:55;42.40;;;18.63;;
67841;SDS011;54642;59.126;37.876;2022-11-15T16:55:26;67.40;;;35.83;;
67841;SDS011;54642;59.126;37.876;2022-11-15T16:57:53;61.72;;;34.10;;
67841;SDS011;54642;59.126;37.876;2022-11-15T17:00:22;59.55;;;22.63;;
67841;SDS011;54642;59.126;37.876;2022-11-15T17:02:49;73.50;;;24.13;;
67841;SDS011;54642;59.126;37.876;2022-11-15T17:05:17;52.78;;;15.25;;
67841;SDS011;54642;59.126;37.876;2022-11-15T17:07:45;48.00;;;13.10;;
67841;SDS011;54642;59.126;37.876;2022-11-15T17:10:14;30.77;;;11.13;;
67841;SDS011;54642;59.126;37.876;2022-11-15T17:12:41;26.65;;;9.27;;
67841;SDS011;54642;59.126;37.876;2022-11-15T17:15:07;26.20;;;9.25;;
67841;SDS011;54642;59.126;37.876;2022-11-15T17:17:35;28.70;;;10.82;;
67841;SDS011;54642;59.126;37.876;2022-11-15T17:20:02;39.83;;;14.55;;
67841;SDS011;54642;59.126;37.876;2022-11-15T17:22:29;30.48;;;11.43;;
67841;SDS011;54642;59.126;37.876;2022-11-15T17:24:56;51.45;;;14.82;;
67841;SDS011;54642;59.126;37.876;2022-11-15T17:27:22;44.33;;;16.02;;
67841;SDS011;54642;59.126;37.876;2022-11-15T17:29:48;30.73;;;12.63;;
67841;SDS011;54642;59.126;37.876;2022-11-15T17:34:39;36.15;;;13.13;;
67841;SDS011;54642;59.126;37.876;2022-11-15T17:39:31;38.78;;;15.90;;
67841;SDS011;54642;59.126;37.876;2022-11-15T17:41:57;39.30;;;17.05;;
67841;SDS011;54642;59.126;37.876;2022-11-15T17:46:48;34.75;;;14.18;;
67841;SDS011;54642;59.126;37.876;2022-11-15T17:49:14;37.72;;;15.25;;
67841;SDS011;54642;59.126;37.876;2022-11-15T17:51:40;24.33;;;9.18;;
67841;SDS011;54642;59.126;37.876;2022-11-15T17:56:37;52.13;;;18.80;;
67841;SDS011;54642;59.126;37.876;2022-11-15T17:59:04;49.75;;;18.40;;
67841;SDS011;54642;59.126;37.876;2022-11-15T18:01:31;65.22;;;24.02;;
67841;SDS011;54642;59.126;37.876;2022-11-15T18:03:59;77.07;;;30.70;;
67841;SDS011;54642;59.126;37.876;2022-11-15T18:06:27;29.17;;;13.98;;
67841;SDS011;54642;59.126;37.876;2022-11-15T18:08:55;31.98;;;12.40;;
67841;SDS011;54642;59.126;37.876;2022-11-15T18:11:28;29.33;;;11.73;;
67841;SDS011;54642;59.126;37.876;2022-11-15T18:13:59;29.60;;;13.95;;
67841;SDS011;54642;59.126;37.876;2022-11-15T18:16:41;42.10;;;18.25;;
67841;SDS011;54642;59.126;37.876;2022-11-15T18:19:11;75.40;;;27.20;;
67841;SDS011;54642;59.126;37.876;2022-11-15T18:21:40;63.45;;;22.92;;
67841;SDS011;54642;59.126;37.876;2022-11-15T18:24:29;38.58;;;13.75;;
67841;SDS011;54642;59.126;37.876;2022-11-15T18:27:05;44.78;;;16.77;;
67841;SDS011;54642;59.126;37.876;2022-11-15T18:29:31;62.75;;;22.70;;
67841;SDS011;54642;59.126;37.876;2022-11-15T18:31:59;58.33;;;20.50;;